createdAt,value
2023-03-07T00:00:19.214Z,30.60
2023-03-07T00:02:51.396Z,25.65
2023-03-07T00:05:19.130Z,21.65
2023-03-07T00:07:46.973Z,26.62
2023-03-07T00:10:14.860Z,29.70
2023-03-07T00:12:42.803Z,27.58
2023-03-07T00:15:11.576Z,32.28
2023-03-07T00:17:39.966Z,28.57
2023-03-07T00:20:15.895Z,24.25
2023-03-07T00:22:46.442Z,27.82
2023-03-07T00:25:15.146Z,29.00
2023-03-07T00:27:42.929Z,25.65
2023-03-07T00:30:11.888Z,23.50
2023-03-07T00:32:39.546Z,25.92
2023-03-07T00:35:08.161Z,23.50
2023-03-07T00:37:35.863Z,24.12
2023-03-07T00:40:06.646Z,33.80
2023-03-07T00:42:34.195Z,38.48
2023-03-07T00:45:03.431Z,25.97
2023-03-07T00:47:31.150Z,26.48
2023-03-07T00:49:59.098Z,27.90
2023-03-07T00:52:26.527Z,24.25
2023-03-07T00:54:54.313Z,27.07
2023-03-07T00:57:21.960Z,26.87
2023-03-07T00:59:49.973Z,22.52
2023-03-07T01:02:17.426Z,25.32
2023-03-07T01:04:45.513Z,32.08
2023-03-07T01:07:13.225Z,28.80
2023-03-07T01:09:41.637Z,22.35
2023-03-07T01:12:09.693Z,23.83
2023-03-07T01:14:37.115Z,17.10
2023-03-07T01:17:04.940Z,18.02
2023-03-07T01:19:32.916Z,18.25
2023-03-07T01:22:00.731Z,20.10
2023-03-07T01:24:28.538Z,17.42
2023-03-07T01:26:56.773Z,16.50
2023-03-07T01:29:24.855Z,16.77
2023-03-07T01:31:53.114Z,14.60
2023-03-07T01:34:21.444Z,16.07
2023-03-07T01:36:51.139Z,15.85
2023-03-07T01:39:18.897Z,14.68
2023-03-07T01:41:51.352Z,14.45
2023-03-07T01:44:25.196Z,16.87
2023-03-07T01:47:00.697Z,15.10
2023-03-07T01:49:38.318Z,15.40
2023-03-07T01:52:14.949Z,13.55
2023-03-07T01:54:49.900Z,13.00
2023-03-07T01:57:23.105Z,13.53
2023-03-07T01:59:54.888Z,15.65
2023-03-07T02:02:24.078Z,15.48
2023-03-07T02:05:18.572Z,16.20
2023-03-07T02:07:49.855Z,21.15
2023-03-07T02:10:22.550Z,28.42
2023-03-07T02:12:53.302Z,28.02
2023-03-07T02:15:21.354Z,32.20
2023-03-07T02:17:49.953Z,39.50
2023-03-07T02:20:50.785Z,40.98
2023-03-07T02:23:39.126Z,35.10
2023-03-07T02:26:34.741Z,42.78
2023-03-07T02:29:03.402Z,42.98
2023-03-07T02:31:31.274Z,32.85
2023-03-07T02:33:59.490Z,29.63
2023-03-07T02:36:34.306Z,28.65
2023-03-07T02:39:06.676Z,26.00
2023-03-07T02:41:36.647Z,20.37
2023-03-07T02:44:06.828Z,17.57
2023-03-07T02:46:34.681Z,18.40
2023-03-07T02:49:02.268Z,18.70
2023-03-07T02:51:29.787Z,18.20
2023-03-07T02:53:58.128Z,17.75
2023-03-07T02:56:26.248Z,18.52
2023-03-07T02:58:54.337Z,16.55
2023-03-07T03:01:22.371Z,12.93
2023-03-07T03:03:50.400Z,17.87
2023-03-07T03:06:17.851Z,18.98
2023-03-07T03:08:45.534Z,19.98
2023-03-07T03:11:13.341Z,13.30
2023-03-07T03:13:41.509Z,22.30
2023-03-07T03:16:09.381Z,25.17
2023-03-07T03:18:38.188Z,18.75
2023-03-07T03:21:10.637Z,16.55
2023-03-07T03:23:38.575Z,17.23
2023-03-07T03:26:11.080Z,13.18
2023-03-07T03:28:40.100Z,12.23
2023-03-07T03:31:13.342Z,10.08
2023-03-07T03:33:43.496Z,11.60
2023-03-07T03:36:15.455Z,11.03
2023-03-07T03:38:43.896Z,10.78
2023-03-07T03:41:17.640Z,10.43
2023-03-07T03:43:45.950Z,10.05
2023-03-07T03:46:14.637Z,11.33
2023-03-07T03:48:43.975Z,12.35
2023-03-07T03:51:16.747Z,10.95
2023-03-07T03:53:44.476Z,10.70
2023-03-07T03:56:19.401Z,11.65
2023-03-07T03:58:51.380Z,12.40
2023-03-07T04:01:21.886Z,13.65
2023-03-07T04:03:52.353Z,11.15
2023-03-07T04:06:24.547Z,10.43
2023-03-07T04:08:53.515Z,9.98
2023-03-07T04:11:23.000Z,11.45
2023-03-07T04:13:50.942Z,10.32
2023-03-07T04:16:21.914Z,9.48
2023-03-07T04:18:50.666Z,10.30
2023-03-07T04:21:20.177Z,9.50
2023-03-07T04:23:53.536Z,9.45
2023-03-07T04:26:22.790Z,10.48
2023-03-07T04:28:50.726Z,10.48
2023-03-07T04:31:26.214Z,10.98
2023-03-07T04:33:55.788Z,9.88
2023-03-07T04:36:24.784Z,14.43
2023-03-07T04:38:52.896Z,24.32
2023-03-07T04:41:26.192Z,20.10
2023-03-07T04:43:58.990Z,46.50
2023-03-07T04:46:27.764Z,68.80
2023-03-07T04:48:55.774Z,66.17
2023-03-07T04:51:23.905Z,66.30
2023-03-07T04:53:51.802Z,56.13
2023-03-07T04:56:19.731Z,50.48
2023-03-07T04:58:48.367Z,50.20
2023-03-07T05:01:18.673Z,57.33
2023-03-07T05:03:46.809Z,50.43
2023-03-07T05:06:15.714Z,44.38
2023-03-07T05:08:45.288Z,42.30
2023-03-07T05:11:13.593Z,35.08
2023-03-07T05:13:41.395Z,39.67
2023-03-07T05:16:09.413Z,47.43
2023-03-07T05:18:37.019Z,58.70
2023-03-07T05:21:05.532Z,58.17
2023-03-07T05:23:33.451Z,57.00
2023-03-07T05:26:01.491Z,65.60
2023-03-07T05:28:29.436Z,66.55
2023-03-07T05:30:57.580Z,56.90
2023-03-07T05:33:25.375Z,49.77
2023-03-07T05:35:55.111Z,48.83
2023-03-07T05:38:23.600Z,50.48
2023-03-07T05:40:51.518Z,45.73
2023-03-07T05:43:19.363Z,42.08
2023-03-07T05:45:47.056Z,44.15
2023-03-07T05:48:14.557Z,44.58
2023-03-07T05:50:43.136Z,42.05
2023-03-07T05:53:12.119Z,37.42
2023-03-07T05:55:39.761Z,34.85
2023-03-07T05:58:08.016Z,38.48
2023-03-07T06:00:35.952Z,44.90
2023-03-07T06:03:04.973Z,43.25
2023-03-07T06:05:32.891Z,36.60
2023-03-07T06:08:00.791Z,30.52
2023-03-07T06:10:30.293Z,28.60
2023-03-07T06:12:57.957Z,21.07
2023-03-07T06:15:25.816Z,24.05
2023-03-07T06:17:55.472Z,24.75
2023-03-07T06:20:23.382Z,27.77
2023-03-07T06:22:53.038Z,35.80
2023-03-07T06:25:21.181Z,39.85
2023-03-07T06:27:49.673Z,49.50
2023-03-07T06:30:17.908Z,58.92
2023-03-07T06:32:46.033Z,53.83
2023-03-07T06:35:13.708Z,48.85
2023-03-07T06:37:41.980Z,51.37
2023-03-07T06:40:12.085Z,48.85
2023-03-07T06:42:39.899Z,43.00
2023-03-07T06:45:09.472Z,38.55
2023-03-07T06:47:37.391Z,31.97
2023-03-07T06:50:07.634Z,44.18
2023-03-07T06:52:35.541Z,50.60
2023-03-07T06:55:03.831Z,45.12
2023-03-07T06:57:33.857Z,36.83
2023-03-07T07:00:07.635Z,32.05
2023-03-07T07:02:36.287Z,28.45
2023-03-07T07:05:06.248Z,27.55
2023-03-07T07:07:33.856Z,29.80
2023-03-07T07:10:01.558Z,31.48
2023-03-07T07:12:30.320Z,31.45
2023-03-07T07:14:59.775Z,38.48
2023-03-07T07:17:30.520Z,35.40
2023-03-07T07:19:58.374Z,34.38
2023-03-07T07:22:26.643Z,34.78
2023-03-07T07:24:54.251Z,41.55
2023-03-07T07:27:22.149Z,40.67
2023-03-07T07:29:50.022Z,48.02
2023-03-07T07:32:17.794Z,46.63
2023-03-07T07:34:45.484Z,35.58
2023-03-07T07:37:13.338Z,35.35
2023-03-07T07:39:42.841Z,35.58
2023-03-07T07:42:11.723Z,36.20
2023-03-07T07:44:41.125Z,32.65
2023-03-07T07:47:10.899Z,25.30
2023-03-07T07:49:38.535Z,25.75
2023-03-07T07:52:06.754Z,39.15
2023-03-07T07:54:34.642Z,48.85
2023-03-07T07:57:03.120Z,56.18
2023-03-07T07:59:32.556Z,62.75
2023-03-07T08:02:01.597Z,70.35
2023-03-07T08:04:29.531Z,51.05
2023-03-07T08:06:57.049Z,54.75
2023-03-07T08:09:24.680Z,45.28
2023-03-07T08:11:52.418Z,40.00
2023-03-07T08:14:20.229Z,36.88
2023-03-07T08:16:47.779Z,26.60
2023-03-07T08:19:15.397Z,28.25
2023-03-07T08:21:43.111Z,34.45
2023-03-07T08:24:10.784Z,43.33
2023-03-07T08:26:38.511Z,40.00
2023-03-07T08:29:09.402Z,21.07
2023-03-07T08:31:36.951Z,29.02
2023-03-07T08:34:04.903Z,31.68
2023-03-07T08:36:32.928Z,30.48
2023-03-07T08:39:00.625Z,24.63
2023-03-07T08:41:28.469Z,25.00
2023-03-07T08:43:56.375Z,25.23
2023-03-07T08:46:24.060Z,25.82
2023-03-07T08:48:51.725Z,27.75
2023-03-07T08:51:19.548Z,23.00
2023-03-07T08:53:47.747Z,24.05
2023-03-07T08:56:18.458Z,25.43
2023-03-07T08:58:46.112Z,26.75
2023-03-07T09:01:14.214Z,30.05
2023-03-07T09:03:42.884Z,27.75
2023-03-07T09:06:17.801Z,29.63
2023-03-07T09:08:47.009Z,25.92
2023-03-07T09:11:16.185Z,27.05
2023-03-07T09:13:51.842Z,28.15
2023-03-07T09:16:13.910Z,23.22
2023-03-07T09:18:41.533Z,26.17
2023-03-07T09:21:08.997Z,27.50
2023-03-07T09:23:36.314Z,32.25
2023-03-07T09:26:05.417Z,33.65
2023-03-07T09:28:33.093Z,28.17
2023-03-07T09:31:08.975Z,23.40
2023-03-07T09:33:36.687Z,28.25
2023-03-07T09:36:10.580Z,30.62
2023-03-07T09:38:39.152Z,35.90
2023-03-07T09:41:24.310Z,36.05
2023-03-07T09:44:12.481Z,31.60
2023-03-07T09:46:49.948Z,29.60
2023-03-07T09:49:21.354Z,27.30
2023-03-07T09:51:52.262Z,22.22
2023-03-07T09:54:28.181Z,19.48
2023-03-07T09:56:59.737Z,22.87
2023-03-07T09:59:45.024Z,24.10
2023-03-07T10:05:42.931Z,18.50
2023-03-07T10:08:21.728Z,18.85
2023-03-07T10:11:10.253Z,20.50
2023-03-07T10:13:55.221Z,26.62
2023-03-07T10:16:36.477Z,20.77
2023-03-07T10:19:31.951Z,18.15
2023-03-07T10:22:27.224Z,20.55
2023-03-07T10:25:29.593Z,15.03
2023-03-07T10:28:23.561Z,21.97
2023-03-07T10:30:55.784Z,22.70
2023-03-07T10:33:24.585Z,34.23
2023-03-07T10:36:00.525Z,16.02
2023-03-07T10:38:49.932Z,15.45
2023-03-07T10:41:21.447Z,12.18
2023-03-07T10:43:52.149Z,16.97
2023-03-07T10:46:31.187Z,12.88
2023-03-07T10:49:29.681Z,12.58
2023-03-07T10:52:32.795Z,146.53
2023-03-07T10:55:33.795Z,26.48
2023-03-07T10:58:26.239Z,16.97
2023-03-07T11:01:05.289Z,17.17
2023-03-07T11:03:55.920Z,13.30
2023-03-07T11:06:36.562Z,11.57
2023-03-07T11:09:23.862Z,12.82
2023-03-07T11:11:58.622Z,15.80
2023-03-07T11:14:28.926Z,16.67
2023-03-07T11:17:02.006Z,13.40
2023-03-07T11:19:39.985Z,9.25
2023-03-07T11:22:32.120Z,11.48
2023-03-07T11:25:05.225Z,12.37
2023-03-07T11:27:46.534Z,13.83
2023-03-07T11:30:37.625Z,18.95
2023-03-07T11:33:17.878Z,15.48
2023-03-07T11:36:16.980Z,13.05
2023-03-07T11:39:02.438Z,11.63
2023-03-07T11:41:37.181Z,11.55
2023-03-07T11:44:40.930Z,14.78
2023-03-07T11:47:22.850Z,13.83
2023-03-07T11:50:22.362Z,9.93
2023-03-07T11:53:22.839Z,20.35
2023-03-07T11:56:18.591Z,13.10
2023-03-07T11:59:16.485Z,12.82
2023-03-07T12:01:58.671Z,11.55
2023-03-07T12:04:40.777Z,14.60
2023-03-07T12:07:50.570Z,14.18
2023-03-07T12:10:55.783Z,10.18
2023-03-07T12:13:46.218Z,12.65
2023-03-07T12:16:27.381Z,10.80
2023-03-07T12:19:32.756Z,11.43
2023-03-07T12:22:11.475Z,11.43
2023-03-07T12:24:59.998Z,13.35
2023-03-07T12:27:38.576Z,11.53
2023-03-07T12:30:26.335Z,12.88
2023-03-07T12:32:54.961Z,19.75
2023-03-07T12:35:33.964Z,22.93
2023-03-07T12:38:09.623Z,22.20
2023-03-07T12:40:41.870Z,21.60
2023-03-07T12:43:37.054Z,17.48
2023-03-07T12:46:15.768Z,18.40
2023-03-07T12:48:57.980Z,15.68
2023-03-07T12:51:51.804Z,15.85
2023-03-07T12:54:36.784Z,15.18
2023-03-07T12:57:12.870Z,14.75
2023-03-07T12:59:43.169Z,13.78
2023-03-07T13:02:25.092Z,11.80
2023-03-07T13:04:53.189Z,13.80
2023-03-07T13:07:33.147Z,15.13
2023-03-07T13:10:05.286Z,21.45
2023-03-07T13:12:37.332Z,16.30
2023-03-07T13:15:22.599Z,14.05
2023-03-07T13:17:54.657Z,14.45
2023-03-07T13:20:38.751Z,17.50
2023-03-07T13:23:23.902Z,15.48
2023-03-07T13:26:01.639Z,16.10
2023-03-07T13:28:44.677Z,14.83
2023-03-07T13:31:27.085Z,13.75
2023-03-07T13:33:54.915Z,16.27
2023-03-07T13:36:39.320Z,15.72
2023-03-07T13:39:37.033Z,13.35
2023-03-07T13:42:04.846Z,13.30
2023-03-07T13:44:39.571Z,12.63
2023-03-07T13:47:40.993Z,14.93
2023-03-07T13:50:52.003Z,14.00
2023-03-07T13:53:43.151Z,11.97
2023-03-07T13:56:21.057Z,11.60
2023-03-07T13:59:15.151Z,12.90
2023-03-07T14:01:50.297Z,11.78
2023-03-07T14:04:38.788Z,11.68
2023-03-07T14:07:16.136Z,14.10
2023-03-07T14:09:48.309Z,11.38
2023-03-07T14:12:33.822Z,11.57
2023-03-07T14:15:24.758Z,11.95
2023-03-07T14:18:00.915Z,11.88
2023-03-07T14:20:55.405Z,12.98
2023-03-07T14:24:06.808Z,11.73
2023-03-07T14:26:44.805Z,19.90
2023-03-07T14:29:21.651Z,14.15
2023-03-07T14:31:53.021Z,13.32
2023-03-07T14:34:31.092Z,13.65
2023-03-07T14:37:09.677Z,13.75
2023-03-07T14:40:03.697Z,13.83
2023-03-07T14:45:50.285Z,6.85
2023-03-07T14:48:44.071Z,10.03
2023-03-07T14:51:19.999Z,9.20
2023-03-07T14:53:49.233Z,9.83
2023-03-07T14:56:26.718Z,10.15
2023-03-07T14:58:58.280Z,11.68
2023-03-07T15:01:35.784Z,12.37
2023-03-07T15:04:11.015Z,22.22
2023-03-07T15:06:43.882Z,16.77
2023-03-07T15:09:11.782Z,21.70
2023-03-07T15:11:53.705Z,11.33
2023-03-07T15:14:49.394Z,10.53
2023-03-07T15:17:21.486Z,9.63
2023-03-07T15:20:00.100Z,11.83
2023-03-07T15:22:31.817Z,11.80
2023-03-07T15:24:59.552Z,11.43
2023-03-07T15:27:30.859Z,14.90
2023-03-07T15:30:01.492Z,14.68
2023-03-07T15:32:40.864Z,13.00
2023-03-07T15:35:14.175Z,13.38
2023-03-07T15:37:57.765Z,16.70
2023-03-07T15:40:36.434Z,12.80
2023-03-07T15:43:18.891Z,13.20
2023-03-07T15:46:10.499Z,11.85
2023-03-07T15:48:43.815Z,11.35
2023-03-07T15:51:19.656Z,12.68
2023-03-07T15:54:00.926Z,28.17
2023-03-07T15:56:40.027Z,41.13
2023-03-07T15:59:31.090Z,28.98
2023-03-07T16:02:27.384Z,12.15
2023-03-07T16:04:55.177Z,13.50
2023-03-07T16:07:22.859Z,14.90
2023-03-07T16:09:50.697Z,70.80
2023-03-07T16:12:21.995Z,65.62
2023-03-07T16:14:52.167Z,49.65
2023-03-07T16:17:38.878Z,16.95
2023-03-07T16:20:16.116Z,14.18
2023-03-07T16:22:44.562Z,18.25
2023-03-07T16:25:12.601Z,19.55
2023-03-07T16:27:40.657Z,15.72
2023-03-07T16:30:15.737Z,23.52
2023-03-07T16:32:43.874Z,18.57
2023-03-07T16:35:23.472Z,13.13
2023-03-07T16:37:52.231Z,19.48
2023-03-07T16:40:20.756Z,19.40
2023-03-07T16:42:50.323Z,12.95
2023-03-07T16:45:29.570Z,17.80
2023-03-07T16:48:00.036Z,15.58
2023-03-07T16:50:33.027Z,15.25
2023-03-07T16:53:00.740Z,14.98
2023-03-07T16:55:28.808Z,13.93
2023-03-07T16:58:00.516Z,14.23
2023-03-07T17:00:28.754Z,14.03
2023-03-07T17:03:02.546Z,20.10
2023-03-07T17:05:30.372Z,35.10
2023-03-07T17:07:59.029Z,28.75
2023-03-07T17:10:28.394Z,20.45
2023-03-07T17:13:01.782Z,14.15
2023-03-07T17:15:32.716Z,15.23
2023-03-07T17:18:01.120Z,11.38
2023-03-07T17:20:29.792Z,12.65
2023-03-07T17:22:57.989Z,10.60
2023-03-07T17:25:27.404Z,9.18
2023-03-07T17:28:12.451Z,9.95
2023-03-07T17:30:41.909Z,10.60
2023-03-07T17:33:11.141Z,10.60
2023-03-07T17:35:39.102Z,13.65
2023-03-07T17:38:07.123Z,10.68
2023-03-07T17:40:34.941Z,17.35
2023-03-07T17:43:03.420Z,16.90
2023-03-07T17:45:31.040Z,17.52
2023-03-07T17:47:58.603Z,12.88
2023-03-07T17:50:26.382Z,14.90
2023-03-07T17:52:55.191Z,15.00
2023-03-07T17:55:26.649Z,13.80
2023-03-07T17:57:54.177Z,15.35
2023-03-07T18:00:23.152Z,14.18
2023-03-07T18:02:51.506Z,13.58
2023-03-07T18:05:19.473Z,11.05
2023-03-07T18:07:48.930Z,15.25
2023-03-07T18:10:17.540Z,11.53
2023-03-07T18:12:45.768Z,14.30
2023-03-07T18:15:16.750Z,11.85
2023-03-07T18:17:48.877Z,13.65
2023-03-07T18:20:16.653Z,14.05
2023-03-07T18:22:44.511Z,14.68
2023-03-07T18:25:14.939Z,13.83
2023-03-07T18:27:44.212Z,15.13
2023-03-07T18:30:13.564Z,14.33
2023-03-07T18:32:41.184Z,18.98
2023-03-07T18:35:10.168Z,20.12
2023-03-07T18:37:38.496Z,17.00
2023-03-07T18:40:08.165Z,17.23
2023-03-07T18:42:36.078Z,16.82
2023-03-07T18:45:04.545Z,16.77
2023-03-07T18:47:32.206Z,18.07
2023-03-07T18:49:59.805Z,15.70
2023-03-07T18:52:27.500Z,18.80
2023-03-07T18:54:55.008Z,15.98
2023-03-07T18:57:22.888Z,17.55
2023-03-07T18:59:50.697Z,17.73
2023-03-07T19:02:18.650Z,16.25
2023-03-07T19:04:46.477Z,15.75
2023-03-07T19:07:14.163Z,16.65
2023-03-07T19:09:44.292Z,17.80
2023-03-07T19:12:11.250Z,16.15
2023-03-07T19:14:39.292Z,12.63
2023-03-07T19:17:06.889Z,12.53
2023-03-07T19:19:36.142Z,14.18
2023-03-07T19:22:07.350Z,13.62
2023-03-07T19:24:35.228Z,30.75
2023-03-07T19:27:02.896Z,24.23
2023-03-07T19:29:30.712Z,24.90
2023-03-07T19:31:58.366Z,29.27
2023-03-07T19:34:26.210Z,32.90
2023-03-07T19:36:53.813Z,34.13
2023-03-07T19:39:21.327Z,36.95
2023-03-07T19:41:49.187Z,31.68
2023-03-07T19:44:17.305Z,30.20
2023-03-07T19:46:47.689Z,23.70
2023-03-07T19:49:16.960Z,20.60
2023-03-07T19:51:44.707Z,20.05
2023-03-07T19:54:15.943Z,16.87
2023-03-07T19:56:45.195Z,14.73
2023-03-07T19:59:13.820Z,29.15
2023-03-07T20:01:41.532Z,31.45
2023-03-07T20:04:12.190Z,20.68
2023-03-07T20:06:41.961Z,15.10
2023-03-07T20:09:12.452Z,13.40
2023-03-07T20:11:44.695Z,17.50
2023-03-07T20:14:12.904Z,17.55
2023-03-07T20:16:41.417Z,17.17
2023-03-07T20:19:09.945Z,18.67
2023-03-07T20:21:38.272Z,18.77
2023-03-07T20:24:08.069Z,21.77
2023-03-07T20:26:38.699Z,21.73
2023-03-07T20:29:08.773Z,24.82
2023-03-07T20:31:38.742Z,38.55
2023-03-07T20:34:06.973Z,46.98
2023-03-07T20:36:37.331Z,44.53
2023-03-07T20:39:09.558Z,52.90
2023-03-07T20:41:37.507Z,35.80
2023-03-07T20:44:08.117Z,44.75
2023-03-07T20:46:38.049Z,42.25
2023-03-07T20:49:06.139Z,38.28
2023-03-07T20:51:36.113Z,45.20
2023-03-07T20:54:08.021Z,41.63
2023-03-07T20:56:38.263Z,52.38
2023-03-07T20:59:07.551Z,69.37
2023-03-07T21:01:36.136Z,58.92
2023-03-07T21:04:09.982Z,57.90
2023-03-07T21:09:09.945Z,67.42
2023-03-07T21:12:01.729Z,57.15
2023-03-07T21:14:29.736Z,74.45
2023-03-07T21:16:57.551Z,74.47
2023-03-07T21:19:25.311Z,118.30
2023-03-07T21:21:53.197Z,135.12
2023-03-07T21:24:21.028Z,137.43
2023-03-07T21:26:48.774Z,131.82
2023-03-07T21:29:16.515Z,123.02
2023-03-07T21:31:44.367Z,64.62
2023-03-07T21:34:14.548Z,74.75
2023-03-07T21:36:42.700Z,89.87
2023-03-07T21:39:11.165Z,88.95
2023-03-07T21:41:39.066Z,71.95
2023-03-07T21:44:07.551Z,75.40
2023-03-07T21:46:35.239Z,89.30
2023-03-07T21:49:02.762Z,85.77
2023-03-07T21:51:30.450Z,78.15
2023-03-07T21:53:58.385Z,67.95
2023-03-07T21:56:26.321Z,73.15
2023-03-07T21:58:54.949Z,87.60
2023-03-07T22:01:28.316Z,86.92
2023-03-07T22:03:58.556Z,81.55
2023-03-07T22:06:27.964Z,75.62
2023-03-07T22:08:55.749Z,86.35
2023-03-07T22:11:23.369Z,101.38
2023-03-07T22:13:51.044Z,94.80
2023-03-07T22:16:21.079Z,97.75
2023-03-07T22:18:53.798Z,113.83
2023-03-07T22:21:23.438Z,104.27
2023-03-07T22:23:54.420Z,91.08
2023-03-07T22:26:22.018Z,84.70
2023-03-07T22:28:51.000Z,82.80
2023-03-07T22:31:18.826Z,81.28
2023-03-07T22:33:46.759Z,79.77
2023-03-07T22:36:14.808Z,81.42
2023-03-07T22:38:43.327Z,76.80
2023-03-07T22:41:16.941Z,67.00
2023-03-07T22:43:44.814Z,64.60
2023-03-07T22:46:13.112Z,62.73
2023-03-07T22:48:40.839Z,55.92
2023-03-07T22:51:17.186Z,64.15
2023-03-07T22:53:45.390Z,65.15
2023-03-07T22:56:25.370Z,58.30
2023-03-07T22:58:53.916Z,63.50
2023-03-07T23:01:24.740Z,77.37
2023-03-07T23:03:53.981Z,76.25
2023-03-07T23:06:23.367Z,72.60
2023-03-07T23:08:53.185Z,61.95
2023-03-07T23:11:22.977Z,62.15
2023-03-07T23:13:51.110Z,63.52
2023-03-07T23:16:22.474Z,61.85
2023-03-07T23:18:52.217Z,63.50
2023-03-07T23:21:23.765Z,56.92
2023-03-07T23:23:55.361Z,43.28
2023-03-07T23:26:30.773Z,42.03
2023-03-07T23:29:00.550Z,41.02
2023-03-07T23:31:35.132Z,42.40
2023-03-07T23:34:06.997Z,42.58
2023-03-07T23:36:35.255Z,40.63
2023-03-07T23:39:03.447Z,43.15
2023-03-07T23:41:31.043Z,41.42
2023-03-07T23:44:00.602Z,43.60
2023-03-07T23:46:30.067Z,37.78
2023-03-07T23:48:57.880Z,36.85
2023-03-07T23:51:25.713Z,39.23
2023-03-07T23:53:53.385Z,37.40
2023-03-07T23:56:22.226Z,36.35
2023-03-07T23:58:51.598Z,37.03
